Time;durP1;ratioP1;P1;durP2;ratioP2;P2;SDS_P1;SDS_P2;PMS_P1;PMS_P2;Temp;Humidity;BMP_temperature;BMP_pressure;BME280_temperature;BME280_humidity;BME280_pressure;Samples;Min_cycle;Max_cycle;Signal;HPM_P1;HPM_P2
2021/03/10 00:01:18;;;;;;;21.80;12.93;;;;;;;-4.35;73.04;93077.12;1841359;77;21217;-78
2021/03/10 00:03:46;;;;;;;26.83;13.10;;;;;;;-4.38;73.10;93069.78;1848090;77;21054;-78
2021/03/10 00:06:13;;;;;;;24.87;14.40;;;;;;;-4.44;73.35;93066.47;1848591;77;21471;-78
2021/03/10 00:08:42;;;;;;;24.17;13.93;;;;;;;-4.51;73.55;93066.95;1841294;77;21539;-78
2021/03/10 00:11:09;;;;;;;30.87;16.50;;;;;;;-4.54;73.77;93068.89;1806063;79;21143;-79
2021/03/10 00:13:37;;;;;;;40.60;19.53;;;;;;;-4.51;74.04;93066.17;1846136;77;21148;-77
2021/03/10 00:16:06;;;;;;;30.53;17.03;;;;;;;-4.48;73.84;93068.97;1848354;77;21494;-78
2021/03/10 00:18:34;;;;;;;31.03;17.90;;;;;;;-4.48;73.71;93067.64;1848689;77;21473;-77
2021/03/10 00:21:01;;;;;;;30.53;16.07;;;;;;;-4.50;73.74;93066.41;1848573;76;22026;-77
2021/03/10 00:23:29;;;;;;;27.60;14.63;;;;;;;-4.54;73.91;93070.77;1848535;77;21095;-77
2021/03/10 00:25:56;;;;;;;40.83;18.27;;;;;;;-4.55;74.00;93060.70;1848669;77;21051;-77
2021/03/10 00:28:24;;;;;;;35.73;18.60;;;;;;;-4.55;74.13;93062.03;1848645;77;21051;-77
2021/03/10 00:30:51;;;;;;;37.63;20.50;;;;;;;-4.55;73.97;93054.06;1848645;77;21162;-77
2021/03/10 00:33:19;;;;;;;35.57;18.63;;;;;;;-4.53;73.93;93063.03;1833009;77;22253;-77
2021/03/10 00:35:47;;;;;;;27.37;15.20;;;;;;;-4.54;74.06;93052.19;1811567;77;21167;-78
2021/03/10 00:38:14;;;;;;;30.83;15.07;;;;;;;-4.53;74.07;93051.09;1848799;77;21042;-78
2021/03/10 00:40:43;;;;;;;47.27;21.63;;;;;;;-4.52;74.15;93053.97;1809302;77;21061;-77
2021/03/10 00:43:10;;;;;;;43.90;22.07;;;;;;;-4.55;74.18;93051.94;1835572;77;21109;-77
2021/03/10 00:45:38;;;;;;;36.03;19.03;;;;;;;-4.55;74.25;93043.45;1848696;77;21620;-78
2021/03/10 00:48:06;;;;;;;32.80;16.10;;;;;;;-4.56;74.22;93043.75;1848648;77;21062;-78
2021/03/10 00:50:34;;;;;;;27.90;16.27;;;;;;;-4.59;74.24;93041.70;1848291;76;21146;-79
2021/03/10 00:53:02;;;;;;;33.57;17.20;;;;;;;-4.65;74.41;93033.91;1848509;77;21036;-77
2021/03/10 00:55:29;;;;;;;26.20;15.03;;;;;;;-4.64;74.34;93029.38;1848568;77;21091;-78
2021/03/10 00:57:56;;;;;;;29.17;15.23;;;;;;;-4.58;74.17;93025.49;1848544;77;21190;-77
2021/03/10 01:00:25;;;;;;;30.17;15.77;;;;;;;-4.54;74.06;93023.00;1848404;77;21043;-77
2021/03/10 01:02:53;;;;;;;30.70;14.67;;;;;;;-4.48;74.08;93020.41;1848447;77;21055;-77
2021/03/10 01:05:21;;;;;;;28.17;13.77;;;;;;;-4.50;74.11;93019.96;1848458;77;21165;-78
2021/03/10 01:07:49;;;;;;;31.00;16.70;;;;;;;-4.51;74.45;93012.55;1848515;77;21110;-77
2021/03/10 01:10:16;;;;;;;37.80;17.63;;;;;;;-4.47;74.22;93010.83;1848657;77;22630;-77
2021/03/10 01:12:44;;;;;;;24.53;13.33;;;;;;;-4.43;74.09;93015.75;1848324;76;21047;-78
2021/03/10 01:15:17;;;;;;;29.37;16.33;;;;;;;-4.41;74.08;93002.94;1848457;77;21027;-78
2021/03/10 01:17:45;;;;;;;31.40;14.57;;;;;;;-4.37;73.94;92997.01;1847714;77;21110;-78
2021/03/10 01:20:20;;;;;;;22.93;13.33;;;;;;;-4.36;73.60;92998.05;1806284;78;21049;-78
2021/03/10 01:22:47;;;;;;;23.90;13.13;;;;;;;-4.36;73.45;92996.72;1805553;78;21215;-77
2021/03/10 01:25:15;;;;;;;18.40;11.13;;;;;;;-4.40;73.65;92990.44;1807425;79;21495;-78
2021/03/10 01:27:43;;;;;;;20.27;12.07;;;;;;;-4.42;73.80;92993.42;1824555;76;21043;-78
2021/03/10 01:30:13;;;;;;;16.63;10.37;;;;;;;-4.45;73.80;93007.86;1817912;77;21092;-78
2021/03/10 01:32:40;;;;;;;20.77;11.60;;;;;;;-4.50;73.94;92993.42;1806178;79;21124;-77
2021/03/10 01:35:11;;;;;;;21.50;12.33;;;;;;;-4.56;74.24;92988.80;1805759;79;21647;-78
2021/03/10 01:37:38;;;;;;;24.83;13.93;;;;;;;-4.55;74.06;92990.38;1838148;77;21591;-77
2021/03/10 01:40:09;;;;;;;27.97;13.87;;;;;;;-4.56;73.99;92988.80;1826113;77;21100;-77
2021/03/10 01:42:36;;;;;;;27.63;15.77;;;;;;;-4.57;74.02;92988.57;1806088;78;21049;-77
2021/03/10 01:45:07;;;;;;;43.63;25.47;;;;;;;-4.57;74.21;92990.45;1809688;77;21057;-78
2021/03/10 01:47:37;;;;;;;28.77;16.63;;;;;;;-4.60;74.45;92983.88;1848615;77;21357;-78
2021/03/10 01:50:07;;;;;;;31.50;17.57;;;;;;;-4.58;74.63;92975.63;1825592;77;21057;-77
2021/03/10 01:52:34;;;;;;;28.23;16.43;;;;;;;-4.57;74.47;92975.85;1848457;77;21546;-77
2021/03/10 01:55:03;;;;;;;24.43;14.90;;;;;;;-4.52;74.56;92975.69;1848322;77;21138;-76
2021/03/10 01:57:30;;;;;;;28.27;15.53;;;;;;;-4.51;74.58;92964.78;1848681;77;21529;-77
2021/03/10 01:59:57;;;;;;;27.30;15.77;;;;;;;-4.47;74.56;92967.59;1847922;77;21138;-76
2021/03/10 02:02:25;;;;;;;21.37;12.00;;;;;;;-4.46;74.61;92980.54;1806083;79;21081;-77
2021/03/10 02:04:53;;;;;;;23.17;11.90;;;;;;;-4.47;74.41;92973.67;1839939;77;21058;-76
2021/03/10 02:07:47;;;;;;;20.57;12.13;;;;;;;-4.51;74.44;92984.69;1848395;77;21110;-77
2021/03/10 02:10:30;;;;;;;17.17;10.93;;;;;;;-4.55;74.45;92972.33;1826472;77;21532;-77
2021/03/10 02:13:09;;;;;;;18.10;11.37;;;;;;;-4.57;74.50;92971.88;1822927;77;21356;-76
2021/03/10 02:15:58;;;;;;;22.80;12.47;;;;;;;-4.56;74.57;92972.09;1837865;77;21599;-76
2021/03/10 02:18:46;;;;;;;26.47;15.10;;;;;;;-4.54;74.27;92973.36;1812692;77;21216;-78
2021/03/10 02:21:23;;;;;;;28.50;14.27;;;;;;;-4.52;74.26;92973.03;1845379;77;21046;-78
2021/03/10 02:24:04;;;;;;;30.07;15.53;;;;;;;-4.49;74.20;92961.80;1806262;79;21108;-77
2021/03/10 02:26:37;;;;;;;37.17;16.40;;;;;;;-4.47;73.96;92967.59;1803459;79;21795;-78
2021/03/10 02:29:07;;;;;;;27.70;14.63;;;;;;;-4.46;74.05;92961.96;1838259;77;21166;-78
2021/03/10 02:31:42;;;;;;;35.40;20.83;;;;;;;-4.45;73.95;92960.08;1819206;77;21104;-77
2021/03/10 02:34:09;;;;;;;26.50;13.50;;;;;;;-4.45;73.95;92962.73;1827507;77;21135;-78
2021/03/10 02:36:40;;;;;;;22.33;12.17;;;;;;;-4.41;74.05;92965.77;1799572;79;21164;-77
2021/03/10 02:39:07;;;;;;;25.97;15.03;;;;;;;-4.41;73.77;92949.84;1803054;79;22133;-77
2021/03/10 02:41:34;;;;;;;24.67;14.00;;;;;;;-4.38;73.94;92957.74;1852308;77;21135;-77
2021/03/10 02:44:03;;;;;;;25.77;14.13;;;;;;;-4.34;74.06;92956.57;1854913;77;21535;-76
2021/03/10 02:46:30;;;;;;;26.60;15.43;;;;;;;-4.38;74.01;92960.40;1854951;77;21534;-77
2021/03/10 02:48:59;;;;;;;31.10;15.63;;;;;;;-4.42;74.15;92960.80;1854829;77;21143;-78
2021/03/10 02:51:26;;;;;;;29.10;15.70;;;;;;;-4.42;74.29;92956.26;1854889;77;22077;-77
2021/03/10 02:53:54;;;;;;;28.60;14.73;;;;;;;-4.38;74.11;92960.95;1855024;77;21079;-77
2021/03/10 02:56:21;;;;;;;32.87;16.93;;;;;;;-4.38;74.22;92960.40;1854881;77;21111;-78
2021/03/10 02:58:49;;;;;;;37.07;18.97;;;;;;;-4.40;74.28;92958.59;1829246;77;21096;-76
2021/03/10 03:01:16;;;;;;;29.20;14.80;;;;;;;-4.38;74.28;92959.07;1854591;77;21047;-78
2021/03/10 03:03:44;;;;;;;22.97;13.60;;;;;;;-4.36;73.91;92951.59;1848666;77;21728;-77
2021/03/10 03:06:12;;;;;;;21.63;12.40;;;;;;;-4.39;73.93;92948.23;1821178;78;21139;-76
2021/03/10 03:08:39;;;;;;;21.20;12.53;;;;;;;-4.38;74.00;92943.69;1853989;77;21271;-77
2021/03/10 03:11:07;;;;;;;23.10;12.13;;;;;;;-4.41;73.75;92945.87;1855214;77;21145;-77
2021/03/10 03:13:35;;;;;;;22.03;12.83;;;;;;;-4.42;74.03;92952.83;1855179;77;21015;-76
2021/03/10 03:16:02;;;;;;;24.27;14.23;;;;;;;-4.42;74.20;92942.98;1855200;76;21714;-77
2021/03/10 03:18:31;;;;;;;21.17;12.80;;;;;;;-4.40;73.92;92944.80;1853389;77;21102;-77
2021/03/10 03:21:01;;;;;;;21.93;13.17;;;;;;;-4.43;74.00;92946.74;1821244;78;21095;-77
2021/03/10 03:23:29;;;;;;;25.30;14.20;;;;;;;-4.45;74.03;92942.28;1821446;78;21580;-78
2021/03/10 03:25:57;;;;;;;20.57;13.07;;;;;;;-4.44;74.13;92933.25;1821563;78;21163;-77
2021/03/10 03:28:26;;;;;;;20.13;11.83;;;;;;;-4.43;74.23;92938.78;1834740;77;22633;-76
2021/03/10 03:30:55;;;;;;;27.07;13.40;;;;;;;-4.50;74.02;92935.03;1855021;77;21051;-76
2021/03/10 03:33:27;;;;;;;20.63;11.77;;;;;;;-4.66;74.42;92930.20;1855183;77;21031;-76
2021/03/10 03:35:57;;;;;;;23.03;12.67;;;;;;;-4.76;74.70;92917.23;1819867;78;21070;-77
2021/03/10 03:38:27;;;;;;;24.33;13.40;;;;;;;-4.86;75.17;92918.86;1848014;77;21485;-77
2021/03/10 03:40:55;;;;;;;23.73;14.00;;;;;;;-4.84;75.44;92926.52;1855008;77;22077;-77
2021/03/10 03:43:25;;;;;;;24.03;13.10;;;;;;;-4.87;75.57;92921.28;1843455;77;21472;-77
2021/03/10 03:45:52;;;;;;;21.37;13.07;;;;;;;-4.84;75.66;92922.55;1821018;75;21049;-77
2021/03/10 03:48:20;;;;;;;21.17;12.17;;;;;;;-4.82;75.68;92917.14;1821101;78;21150;-77
2021/03/10 03:50:48;;;;;;;25.77;13.27;;;;;;;-4.83;75.65;92921.45;1820939;77;21455;-77
2021/03/10 03:53:16;;;;;;;28.13;14.20;;;;;;;-4.87;75.71;92914.66;1821197;75;21112;-76
2021/03/10 03:55:43;;;;;;;21.03;13.17;;;;;;;-4.94;75.77;92913.78;1836530;77;21560;-76
2021/03/10 03:58:11;;;;;;;22.73;13.53;;;;;;;-5.02;75.79;92912.45;1847599;75;21083;-78
2021/03/10 04:00:40;;;;;;;23.83;12.30;;;;;;;-5.06;76.03;92917.59;1820813;78;21159;-76
2021/03/10 04:03:07;;;;;;;24.30;13.83;;;;;;;-5.08;76.21;92916.33;1823712;78;21075;-76
2021/03/10 04:05:35;;;;;;;28.33;13.80;;;;;;;-5.12;76.35;92909.55;1825967;78;21210;-77
2021/03/10 04:08:05;;;;;;;22.10;12.83;;;;;;;-5.12;76.45;92912.97;1844614;76;21089;-77
2021/03/10 04:10:34;;;;;;;21.20;11.83;;;;;;;-5.10;76.41;92910.58;1854968;76;21067;-77
2021/03/10 04:13:02;;;;;;;20.83;12.00;;;;;;;-5.10;76.31;92905.27;1855036;77;21032;-76
2021/03/10 04:15:31;;;;;;;19.77;12.03;;;;;;;-5.14;76.41;92904.56;1855023;77;21098;-76
2021/03/10 04:18:00;;;;;;;21.73;11.90;;;;;;;-5.14;76.77;92911.19;1854932;77;21399;-77
2021/03/10 04:20:27;;;;;;;25.73;14.63;;;;;;;-5.07;76.97;92907.31;1854933;77;21171;-76
2021/03/10 04:22:54;;;;;;;26.50;16.57;;;;;;;-5.02;77.15;92903.17;1839271;77;21645;-78
2021/03/10 04:25:22;;;;;;;28.13;16.60;;;;;;;-4.99;77.24;92895.93;1828814;77;21052;-77
2021/03/10 04:27:50;;;;;;;22.67;12.60;;;;;;;-4.97;77.31;92897.71;1854815;77;21121;-77
2021/03/10 04:30:19;;;;;;;22.00;13.30;;;;;;;-4.98;77.10;92897.48;1821130;78;22331;-77
2021/03/10 04:32:47;;;;;;;24.67;12.47;;;;;;;-5.07;77.30;92891.41;1847331;77;21169;-78
2021/03/10 04:35:16;;;;;;;21.27;12.07;;;;;;;-5.15;77.42;92900.91;1854270;77;21174;-77
2021/03/10 04:37:44;;;;;;;26.73;13.20;;;;;;;-5.27;77.59;92895.41;1843188;77;21115;-77
2021/03/10 04:40:12;;;;;;;22.97;13.10;;;;;;;-5.37;77.82;92894.62;1824595;77;21127;-77
2021/03/10 04:42:39;;;;;;;20.37;12.30;;;;;;;-5.39;78.05;92899.44;1851664;77;22240;-77
2021/03/10 04:45:10;;;;;;;23.07;12.93;;;;;;;-5.35;78.12;92886.90;1851252;77;21166;-76
2021/03/10 04:47:37;;;;;;;28.63;14.93;;;;;;;-5.34;78.19;92891.91;1851360;77;21190;-76
2021/03/10 04:50:07;;;;;;;26.67;14.27;;;;;;;-5.30;78.31;92887.55;1851433;77;21047;-77
2021/03/10 04:52:35;;;;;;;24.43;14.33;;;;;;;-5.26;78.50;92891.14;1851123;77;21040;-77
2021/03/10 04:55:06;;;;;;;31.67;16.03;;;;;;;-5.27;78.61;92890.10;1850724;77;21793;-76
2021/03/10 04:57:34;;;;;;;25.90;15.77;;;;;;;-5.25;78.63;92888.72;1850118;77;21209;-77
2021/03/10 05:00:05;;;;;;;26.07;14.40;;;;;;;-5.23;78.46;92895.83;1826987;77;21183;-77
2021/03/10 05:02:32;;;;;;;27.97;16.00;;;;;;;-5.21;78.33;92891.53;1850796;77;21163;-76
2021/03/10 05:05:01;;;;;;;29.47;16.13;;;;;;;-5.21;78.24;92891.53;1850545;77;21179;-77
2021/03/10 05:07:29;;;;;;;30.70;16.90;;;;;;;-5.20;78.42;92890.43;1851436;77;22608;-76
2021/03/10 05:09:57;;;;;;;25.67;15.23;;;;;;;-5.18;78.36;92888.27;1851477;77;21582;-76
2021/03/10 05:12:29;;;;;;;28.00;17.30;;;;;;;-5.14;78.20;92890.53;1850469;77;21207;-76
2021/03/10 05:14:54;;;;;;;34.40;18.20;;;;;;;-5.10;78.06;92888.81;1849064;77;21151;-77
2021/03/10 05:17:21;;;;;;;26.07;15.43;;;;;;;-5.06;77.89;92891.08;1849003;77;21163;-76
2021/03/10 05:19:49;;;;;;;30.27;16.80;;;;;;;-5.06;77.70;92892.95;1849143;77;21196;-77
2021/03/10 05:22:16;;;;;;;24.57;14.83;;;;;;;-5.09;77.64;92890.37;1849060;77;21159;-77
2021/03/10 05:24:44;;;;;;;22.20;13.33;;;;;;;-5.09;77.61;92887.72;1849239;77;21167;-77
2021/03/10 05:27:11;;;;;;;23.57;13.10;;;;;;;-5.13;77.46;92877.50;1849156;77;21128;-76
2021/03/10 05:29:39;;;;;;;25.60;12.80;;;;;;;-5.18;77.56;92883.74;1850270;77;21561;-78
2021/03/10 05:32:06;;;;;;;38.77;19.13;;;;;;;-5.17;77.60;92890.59;1851279;77;21370;-77
2021/03/10 05:34:34;;;;;;;26.17;15.03;;;;;;;-5.14;77.93;92890.53;1851437;77;21717;-76
2021/03/10 05:37:02;;;;;;;28.07;15.60;;;;;;;-5.10;77.98;92894.12;1851407;77;21539;-76
2021/03/10 05:39:30;;;;;;;28.13;15.87;;;;;;;-5.04;77.92;92887.59;1851357;77;21124;-76
2021/03/10 05:41:58;;;;;;;29.40;18.83;;;;;;;-4.90;77.85;92888.75;1851206;77;21092;-76
2021/03/10 05:44:25;;;;;;;26.63;17.27;;;;;;;-4.82;77.70;92883.98;1851203;77;21205;-77
2021/03/10 05:46:53;;;;;;;26.23;14.60;;;;;;;-4.73;77.42;92887.98;1851220;77;21061;-76
2021/03/10 05:49:22;;;;;;;25.50;16.37;;;;;;;-4.70;77.38;92894.78;1851132;77;21116;-76
2021/03/10 05:51:50;;;;;;;36.67;23.90;;;;;;;-4.67;77.43;92895.45;1850811;77;21044;-76
2021/03/10 05:54:19;;;;;;;43.07;27.57;;;;;;;-4.61;77.21;92900.62;1851374;77;21222;-76
2021/03/10 05:56:47;;;;;;;54.17;31.67;;;;;;;-4.54;76.92;92908.34;1851138;77;21450;-76
2021/03/10 05:59:14;;;;;;;47.20;30.37;;;;;;;-4.53;76.93;92912.55;1851084;77;21057;-77
2021/03/10 06:01:42;;;;;;;61.07;33.20;;;;;;;-4.51;77.05;92906.39;1850077;77;21332;-76
2021/03/10 06:04:09;;;;;;;228.77;99.20;;;;;;;-4.46;76.82;92911.53;1828254;77;21561;-76
2021/03/10 06:06:42;;;;;;;52.20;26.80;;;;;;;-4.38;76.71;92907.86;1851257;77;21618;-76
2021/03/10 06:09:19;;;;;;;52.80;26.80;;;;;;;-4.30;76.49;92908.39;1851318;77;21200;-76
2021/03/10 06:12:03;;;;;;;36.20;21.73;;;;;;;-4.26;76.35;92912.75;1851299;77;21143;-76
2021/03/10 06:14:32;;;;;;;32.73;18.77;;;;;;;-4.23;76.55;92916.66;1851305;77;21535;-76
2021/03/10 06:17:06;;;;;;;38.03;20.93;;;;;;;-4.24;76.41;92913.23;1851289;77;21127;-76
2021/03/10 06:19:44;;;;;;;46.85;27.45;;;;;;;-4.23;76.34;92921.97;1851228;77;21048;-77
2021/03/10 06:22:12;;;;;;;52.77;30.83;;;;;;;-4.15;76.37;92913.98;1851387;77;21145;-77
2021/03/10 06:24:41;;;;;;;37.23;22.97;;;;;;;-4.03;76.07;92918.64;1851227;77;21574;-76
2021/03/10 06:27:08;;;;;;;25.33;16.37;;;;;;;-3.90;75.68;92922.22;1851189;77;21171;-76
2021/03/10 06:29:36;;;;;;;23.80;14.77;;;;;;;-3.80;75.36;92916.58;1851339;77;21037;-77
2021/03/10 06:32:08;;;;;;;33.13;18.00;;;;;;;-3.79;74.80;92912.81;1851372;77;21135;-77
2021/03/10 06:34:43;;;;;;;38.17;24.57;;;;;;;-3.84;74.77;92910.87;1851212;77;21274;-78
2021/03/10 06:37:12;;;;;;;28.02;17.55;;;;;;;-3.89;74.70;92922.45;1850715;77;21179;-77
2021/03/10 06:39:42;;;;;;;25.73;13.30;;;;;;;-3.93;74.76;92924.18;1848185;77;21119;-77
2021/03/10 06:42:13;;;;;;;29.13;16.93;;;;;;;-3.95;74.76;92924.51;1850943;77;21159;-77
2021/03/10 06:44:52;;;;;;;25.70;16.83;;;;;;;-3.92;74.59;92931.82;1849959;77;21160;-78
2021/03/10 06:47:20;;;;;;;25.80;15.10;;;;;;;-3.91;74.58;92929.42;1851005;77;21364;-76
2021/03/10 06:49:53;;;;;;;30.27;16.30;;;;;;;-3.82;74.55;92925.95;1851403;77;21170;-77
2021/03/10 06:52:21;;;;;;;31.97;18.43;;;;;;;-3.77;74.40;92926.55;1850934;77;21609;-77
2021/03/10 06:54:57;;;;;;;35.33;20.13;;;;;;;-3.76;74.51;92920.68;1850782;77;21175;-77
2021/03/10 06:57:25;;;;;;;43.17;24.20;;;;;;;-3.73;74.47;92928.02;1851713;77;21073;-78
2021/03/10 06:59:54;;;;;;;26.00;15.87;;;;;;;-3.67;74.34;92930.20;1851040;77;21791;-77
2021/03/10 07:02:26;;;;;;;25.03;16.57;;;;;;;-3.61;74.30;92926.03;1850638;77;21174;-77
2021/03/10 07:04:57;;;;;;;24.70;14.93;;;;;;;-3.57;74.41;92926.95;1849955;77;21176;-77
2021/03/10 07:07:28;;;;;;;20.73;14.33;;;;;;;-3.47;74.45;92927.37;1849878;77;21159;-77
2021/03/10 07:09:56;;;;;;;21.37;13.10;;;;;;;-3.31;74.19;92929.50;1850153;77;21175;-76
2021/03/10 07:12:26;;;;;;;24.17;14.93;;;;;;;-3.14;73.51;92926.77;1850203;77;22052;-77
2021/03/10 07:14:53;;;;;;;20.87;13.27;;;;;;;-2.99;73.94;92927.54;1850399;77;21168;-76
2021/03/10 07:17:23;;;;;;;20.73;13.00;;;;;;;-2.67;73.38;92918.66;1850175;77;21163;-77
2021/03/10 07:19:51;;;;;;;22.40;14.13;;;;;;;-2.33;72.96;92914.14;1851251;77;21641;-77
2021/03/10 07:22:27;;;;;;;23.30;16.43;;;;;;;-2.06;72.26;92915.50;1850870;77;21104;-76
2021/03/10 07:25:14;;;;;;;37.20;22.80;;;;;;;-1.86;71.68;92916.55;1851358;77;21496;-77
2021/03/10 07:27:51;;;;;;;25.30;16.37;;;;;;;-1.71;71.29;92922.02;1851353;77;21530;-76
2021/03/10 07:30:19;;;;;;;23.93;15.67;;;;;;;-1.54;70.40;92924.30;1849999;77;21112;-77
2021/03/10 07:32:49;;;;;;;22.57;13.53;;;;;;;-1.50;69.34;92926.52;1851123;77;21460;-77
2021/03/10 07:35:16;;;;;;;20.93;14.30;;;;;;;-1.54;68.83;92931.73;1851356;77;21108;-77
2021/03/10 07:37:51;;;;;;;27.43;15.90;;;;;;;-1.61;68.82;92930.16;1851181;77;22148;-77
2021/03/10 07:40:21;;;;;;;24.63;15.47;;;;;;;-1.69;69.42;92928.90;1856776;77;21184;-77
2021/03/10 07:42:57;;;;;;;26.47;16.60;;;;;;;-1.75;69.55;92932.34;1854881;76;21166;-77
2021/03/10 07:45:45;;;;;;;24.97;15.27;;;;;;;-1.79;69.58;92933.55;1832549;77;21084;-77
2021/03/10 07:48:13;;;;;;;22.80;14.53;;;;;;;-1.82;69.67;92930.21;1838444;77;21550;-77
2021/03/10 07:50:44;;;;;;;24.18;15.72;;;;;;;-1.86;69.57;92930.64;1843165;77;21771;-78
2021/03/10 07:53:12;;;;;;;23.57;14.80;;;;;;;-1.88;69.54;92933.41;1822424;77;21150;-77
2021/03/10 07:55:47;;;;;;;23.60;14.97;;;;;;;-1.88;69.58;92928.87;1854438;77;21090;-77
2021/03/10 07:58:28;;;;;;;21.12;13.10;;;;;;;-1.87;69.16;92930.98;1821791;77;21195;-77
2021/03/10 08:00:56;;;;;;;21.33;14.30;;;;;;;-1.86;69.66;92929.88;1846412;77;21640;-77
2021/03/10 08:03:33;;;;;;;22.55;14.60;;;;;;;-1.86;69.38;92938.64;1852919;77;22275;-77
2021/03/10 08:06:04;;;;;;;19.57;13.23;;;;;;;-1.86;69.06;92933.87;1853591;76;21182;-78
2021/03/10 08:08:36;;;;;;;21.23;13.57;;;;;;;-1.88;69.26;92930.73;1853199;76;21150;-77
2021/03/10 08:11:17;;;;;;;19.03;12.70;;;;;;;-1.89;69.80;92926.53;1853655;76;21165;-77
2021/03/10 08:13:47;;;;;;;23.27;14.93;;;;;;;-1.92;69.66;92927.17;1854806;77;21042;-77
2021/03/10 08:16:14;;;;;;;28.10;15.57;;;;;;;-1.98;69.83;92922.63;1823905;76;21184;-77
2021/03/10 08:18:48;;;;;;;25.80;16.20;;;;;;;-2.02;69.87;92929.16;1843560;77;21109;-77
2021/03/10 08:21:18;;;;;;;27.70;16.13;;;;;;;-2.00;69.90;92930.15;1854153;77;21103;-77
2021/03/10 08:23:47;;;;;;;25.67;16.57;;;;;;;-2.02;69.62;92930.48;1854814;77;21058;-77
2021/03/10 08:26:17;;;;;;;29.00;17.13;;;;;;;-1.99;69.68;92928.51;1854219;77;21134;-77
2021/03/10 08:28:44;;;;;;;24.70;15.47;;;;;;;-1.94;69.54;92926.19;1854854;77;21331;-79
2021/03/10 08:31:12;;;;;;;31.20;16.23;;;;;;;-1.92;69.86;92922.63;1854270;76;21416;-77
2021/03/10 08:33:49;;;;;;;25.90;15.63;;;;;;;-1.92;70.09;92924.52;1854012;76;21129;-77
2021/03/10 08:36:18;;;;;;;26.00;16.47;;;;;;;-1.96;70.43;92920.39;1854817;77;21161;-77
2021/03/10 08:38:46;;;;;;;26.30;16.73;;;;;;;-1.99;70.22;92921.07;1842866;75;21574;-77
2021/03/10 08:41:15;;;;;;;28.50;16.63;;;;;;;-2.03;70.36;92920.14;1817238;77;21087;-76
2021/03/10 08:43:42;;;;;;;27.23;16.60;;;;;;;-2.07;70.78;92924.05;1855120;77;21508;-77
2021/03/10 08:46:10;;;;;;;24.80;15.50;;;;;;;-2.09;71.03;92926.80;1827822;75;21132;-76
2021/03/10 08:48:37;;;;;;;24.33;16.07;;;;;;;-2.09;71.21;92921.47;1839327;77;21149;-77
2021/03/10 08:51:05;;;;;;;24.83;16.10;;;;;;;-2.08;71.31;92919.03;1854916;77;21449;-76
2021/03/10 08:53:32;;;;;;;28.00;16.83;;;;;;;-2.06;71.35;92918.16;1854600;77;21343;-77
2021/03/10 08:56:07;;;;;;;28.53;16.13;;;;;;;-2.06;71.48;92924.27;1854818;77;21154;-77
2021/03/10 08:58:35;;;;;;;25.72;16.62;;;;;;;-2.05;71.58;92928.48;1822987;77;21108;-77
2021/03/10 09:01:14;;;;;;;27.53;16.93;;;;;;;-2.04;71.71;92925.25;1844695;77;21188;-77
2021/03/10 09:03:43;;;;;;;28.23;17.93;;;;;;;-2.03;71.94;92928.13;1835494;75;21056;-77
2021/03/10 09:06:12;;;;;;;31.23;18.13;;;;;;;-2.00;72.23;92922.93;1832362;77;21194;-77
2021/03/10 09:08:40;;;;;;;33.73;20.97;;;;;;;-1.99;72.44;92927.17;1850460;77;21635;-76
2021/03/10 09:11:09;;;;;;;37.90;21.67;;;;;;;-1.96;72.38;92930.52;1820235;78;21625;-79
2021/03/10 09:13:41;;;;;;;36.37;20.57;;;;;;;-1.96;72.52;92925.19;1794919;78;21439;-77
2021/03/10 09:16:10;;;;;;;38.57;22.73;;;;;;;-1.94;72.65;92930.73;1841426;77;21151;-77
2021/03/10 09:18:40;;;;;;;32.48;20.20;;;;;;;-1.90;72.72;92930.30;1849096;77;21362;-77
2021/03/10 09:21:08;;;;;;;36.80;21.57;;;;;;;-1.82;72.78;92924.11;1851015;77;21183;-77
2021/03/10 09:23:38;;;;;;;41.90;25.43;;;;;;;-1.77;72.88;92931.35;1850726;77;22200;-77
2021/03/10 09:26:07;;;;;;;33.47;21.13;;;;;;;-1.74;73.21;92925.34;1850944;77;21162;-77
2021/03/10 09:28:40;;;;;;;35.30;22.40;;;;;;;-1.66;73.09;92927.69;1848393;77;21187;-78
2021/03/10 09:31:18;;;;;;;38.55;24.18;;;;;;;-1.62;73.20;92925.14;1849083;77;21382;-76
2021/03/10 09:34:05;;;;;;;41.50;25.87;;;;;;;-1.60;73.49;92919.71;1850404;77;21178;-76
2021/03/10 09:36:38;;;;;;;38.17;21.93;;;;;;;-1.56;73.77;92917.16;1849670;76;21587;-76
2021/03/10 09:39:08;;;;;;;36.73;23.83;;;;;;;-1.48;73.73;92913.05;1828457;77;21150;-75
2021/03/10 09:41:49;;;;;;;37.25;23.50;;;;;;;-1.42;73.78;92919.53;1850647;77;21148;-76
2021/03/10 09:44:20;;;;;;;41.48;23.25;;;;;;;-1.41;73.83;92916.52;1850768;77;21586;-76
2021/03/10 09:46:49;;;;;;;39.78;23.60;;;;;;;-1.38;73.87;92916.41;1850910;77;21581;-76
2021/03/10 09:49:18;;;;;;;35.15;22.98;;;;;;;-1.38;73.78;92917.19;1851018;77;21567;-76
2021/03/10 09:51:47;;;;;;;32.23;20.52;;;;;;;-1.36;73.67;92920.29;1851108;77;21179;-76
2021/03/10 09:54:17;;;;;;;36.75;19.57;;;;;;;-1.35;73.52;92917.09;1850622;77;21598;-76
2021/03/10 09:56:53;;;;;;;42.33;23.85;;;;;;;-1.34;73.54;92920.75;1851115;77;21197;-77
2021/03/10 09:59:32;;;;;;;36.77;20.92;;;;;;;-1.32;73.19;92919.84;1850494;77;21123;-77
2021/03/10 10:02:02;;;;;;;32.83;19.67;;;;;;;-1.30;73.13;92926.97;1851056;77;21131;-77
2021/03/10 10:04:31;;;;;;;32.50;20.20;;;;;;;-1.30;73.18;92930.20;1850878;77;21123;-77
2021/03/10 10:07:02;;;;;;;32.25;18.27;;;;;;;-1.26;73.28;92933.20;1850907;77;37143;-76
2021/03/10 10:09:33;;;;;;;35.52;20.60;;;;;;;-1.18;73.15;92928.09;1849834;77;21438;-76
2021/03/10 10:12:03;;;;;;;33.70;20.05;;;;;;;-1.12;72.75;92924.88;1850101;77;21202;-75
2021/03/10 10:14:33;;;;;;;29.63;17.12;;;;;;;-1.01;72.83;92924.66;1848906;77;21547;-76
2021/03/10 10:17:01;;;;;;;26.12;17.17;;;;;;;-0.84;72.62;92926.86;1850602;77;21140;-76
2021/03/10 10:19:31;;;;;;;25.27;16.23;;;;;;;-0.71;72.36;92927.08;1851289;77;21139;-76
2021/03/10 10:21:59;;;;;;;32.78;19.12;;;;;;;-0.60;72.09;92922.83;1851158;77;22276;-75
2021/03/10 10:24:27;;;;;;;25.27;15.72;;;;;;;-0.51;71.61;92926.14;1850819;77;21151;-75
2021/03/10 10:26:54;;;;;;;27.25;15.65;;;;;;;-0.43;71.41;92930.36;1850400;77;21582;-76
2021/03/10 10:29:24;;;;;;;27.52;16.37;;;;;;;-0.39;71.04;92923.22;1851275;77;21559;-76
2021/03/10 10:31:51;;;;;;;25.45;16.10;;;;;;;-0.36;70.62;92927.33;1850188;77;21127;-76
2021/03/10 10:34:21;;;;;;;25.77;17.57;;;;;;;-0.38;70.22;92926.10;1850880;77;22012;-76
2021/03/10 10:36:50;;;;;;;22.00;14.28;;;;;;;-0.43;70.11;92933.02;1827700;77;21115;-76
2021/03/10 10:39:21;;;;;;;27.55;17.57;;;;;;;-0.50;70.29;92930.36;1850565;77;21535;-75
2021/03/10 10:41:49;;;;;;;29.02;17.85;;;;;;;-0.55;70.36;92930.60;1852190;77;21135;-75
2021/03/10 10:44:18;;;;;;;25.08;15.43;;;;;;;-0.58;70.41;92928.59;1852997;77;21187;-76
2021/03/10 10:46:46;;;;;;;26.70;16.43;;;;;;;-0.62;70.46;92923.71;1842035;77;21202;-76
2021/03/10 10:49:14;;;;;;;26.00;18.05;;;;;;;-0.69;70.44;92928.06;1814107;78;21115;-76
2021/03/10 10:51:42;;;;;;;26.73;16.07;;;;;;;-0.76;70.67;92932.06;1821188;78;21145;-76
2021/03/10 10:54:12;;;;;;;23.98;15.25;;;;;;;-0.82;70.79;92937.43;1808830;78;21548;-76
2021/03/10 10:56:40;;;;;;;22.02;15.18;;;;;;;-0.88;71.03;92934.75;1814526;78;21398;-76
2021/03/10 10:59:10;;;;;;;22.50;14.98;;;;;;;-0.92;71.35;92933.09;1801256;79;21191;-75
2021/03/10 11:01:40;;;;;;;24.18;14.73;;;;;;;-0.95;71.42;92935.09;1801058;78;21497;-75
2021/03/10 11:04:07;;;;;;;28.62;16.12;;;;;;;-0.98;71.34;92933.86;1799837;78;21116;-75
2021/03/10 11:06:35;;;;;;;24.65;16.00;;;;;;;-1.01;71.50;92931.33;1790594;78;21115;-76
2021/03/10 11:09:04;;;;;;;23.35;15.70;;;;;;;-1.01;71.48;92928.66;1789958;79;21028;-75
2021/03/10 11:11:32;;;;;;;20.37;12.93;;;;;;;-1.02;71.86;92922.30;1811887;79;21201;-75
2021/03/10 11:14:00;;;;;;;23.60;15.15;;;;;;;-1.01;71.88;92918.54;1811933;79;21570;-76
2021/03/10 11:16:29;;;;;;;21.10;13.03;;;;;;;-1.00;71.98;92923.53;1816068;78;21127;-75
2021/03/10 11:19:18;;;;;;;22.95;13.68;;;;;;;-0.95;72.00;92919.08;1834680;77;21172;-76
2021/03/10 11:21:47;;;;;;;23.97;15.47;;;;;;;-0.97;71.85;92919.98;1853839;77;21668;-76
2021/03/10 11:24:16;;;;;;;24.25;15.32;;;;;;;-1.04;71.91;92922.65;1860945;77;21565;-76
2021/03/10 11:26:45;;;;;;;25.35;15.78;;;;;;;-1.06;72.05;92918.75;1781149;79;21172;-76
2021/03/10 11:29:14;;;;;;;23.75;15.32;;;;;;;-1.06;72.34;92916.08;1810024;79;21171;-76